createdAt,value
2019-05-13T00:00:34.093Z,6.98
2019-05-13T00:03:21.287Z,6.90
2019-05-13T00:06:08.767Z,6.93
2019-05-13T00:08:56.185Z,6.89
2019-05-13T00:11:43.848Z,6.88
2019-05-13T00:14:34.374Z,6.72
2019-05-13T00:17:23.555Z,6.80
2019-05-13T00:20:10.495Z,6.74
2019-05-13T00:22:58.069Z,6.94
2019-05-13T00:25:45.294Z,7.01
2019-05-13T00:28:34.264Z,6.99
2019-05-13T00:31:24.148Z,6.95
2019-05-13T00:34:11.060Z,6.95
2019-05-13T00:37:08.774Z,6.99
2019-05-13T00:39:47.982Z,7.05
2019-05-13T00:42:37.830Z,7.15
2019-05-13T00:45:25.761Z,7.12
2019-05-13T00:48:14.264Z,7.15
2019-05-13T00:51:03.786Z,7.22
2019-05-13T00:53:53.644Z,7.17
2019-05-13T00:56:40.684Z,7.15
2019-05-13T00:59:27.781Z,6.91
2019-05-13T01:02:15.228Z,6.90
2019-05-13T01:05:04.293Z,6.83
2019-05-13T01:07:53.676Z,6.87
2019-05-13T01:10:40.739Z,6.68
2019-05-13T01:13:28.242Z,6.61
2019-05-13T01:16:15.962Z,6.52
2019-05-13T01:19:04.307Z,6.43
2019-05-13T01:21:54.017Z,6.38
2019-05-13T01:24:40.842Z,6.38
2019-05-13T01:27:28.158Z,6.36
2019-05-13T01:30:16.547Z,6.24
2019-05-13T01:33:04.612Z,6.25
2019-05-13T01:35:53.825Z,6.23
2019-05-13T01:38:43.589Z,6.32
2019-05-13T01:41:33.375Z,6.21
2019-05-13T01:44:20.606Z,6.16
2019-05-13T01:47:07.872Z,6.10
2019-05-13T01:49:55.281Z,6.09
2019-05-13T01:52:44.553Z,6.17
2019-05-13T01:55:33.976Z,6.12
2019-05-13T01:58:20.664Z,6.11
2019-05-13T02:01:08.097Z,5.99
2019-05-13T02:03:55.358Z,6.05
2019-05-13T02:06:44.339Z,6.10
2019-05-13T02:09:33.681Z,5.94
2019-05-13T02:12:24.032Z,6.07
2019-05-13T02:15:10.768Z,6.02
2019-05-13T02:18:00.455Z,5.96
2019-05-13T02:20:48.082Z,5.96
2019-05-13T02:23:35.385Z,5.91
2019-05-13T02:26:24.066Z,6.01
2019-05-13T02:29:14.148Z,5.76
2019-05-13T02:32:02.777Z,5.84
2019-05-13T02:34:53.078Z,5.84
2019-05-13T02:37:42.958Z,5.80
2019-05-13T02:40:28.329Z,5.90
2019-05-13T02:43:16.299Z,5.77
2019-05-13T02:46:04.672Z,5.67
2019-05-13T02:48:52.903Z,5.67
2019-05-13T02:51:42.983Z,5.72
2019-05-13T02:54:29.449Z,5.52
2019-05-13T02:57:16.829Z,5.49
2019-05-13T03:00:05.116Z,5.68
2019-05-13T03:02:52.739Z,5.77
2019-05-13T03:05:42.839Z,5.70
2019-05-13T03:08:40.854Z,5.81
2019-05-13T03:11:22.525Z,5.67
2019-05-13T03:14:08.630Z,5.80
2019-05-13T03:17:24.007Z,5.69
2019-05-13T03:20:16.406Z,5.50
2019-05-13T03:23:03.103Z,5.65
2019-05-13T03:25:53.292Z,5.73
2019-05-13T03:28:38.787Z,5.60
2019-05-13T03:31:27.022Z,5.51
2019-05-13T03:34:16.472Z,5.61
2019-05-13T03:37:07.082Z,5.63
2019-05-13T03:39:55.519Z,5.74
2019-05-13T03:42:44.090Z,5.82
2019-05-13T03:45:32.695Z,5.81
2019-05-13T03:48:23.557Z,5.80
2019-05-13T03:51:13.214Z,5.67
2019-05-13T03:54:03.173Z,5.63
2019-05-13T03:56:52.781Z,5.71
2019-05-13T03:59:43.322Z,5.48
2019-05-13T04:02:32.539Z,5.59
2019-05-13T04:05:22.841Z,5.54
2019-05-13T04:08:09.311Z,5.55
2019-05-13T04:10:56.877Z,5.65
2019-05-13T04:13:45.776Z,5.71
2019-05-13T04:16:33.286Z,5.74
2019-05-13T04:19:23.184Z,5.78
2019-05-13T04:22:12.936Z,5.83
2019-05-13T04:25:02.495Z,5.75
2019-05-13T04:27:52.208Z,5.81
2019-05-13T04:30:38.203Z,5.93
2019-05-13T04:33:25.956Z,5.97
2019-05-13T04:36:13.968Z,6.05
2019-05-13T04:39:03.231Z,6.09
2019-05-13T04:41:52.921Z,5.97
2019-05-13T04:44:42.796Z,6.02
2019-05-13T04:47:32.820Z,6.15
2019-05-13T04:50:18.523Z,6.21
2019-05-13T04:53:05.996Z,6.29
2019-05-13T04:55:53.095Z,6.28
2019-05-13T04:58:42.843Z,6.49
2019-05-13T05:01:53.207Z,7.27
2019-05-13T05:04:43.685Z,8.59
2019-05-13T05:07:42.192Z,9.38
2019-05-13T05:11:22.225Z,8.89
2019-05-13T05:14:24.126Z,10.40
2019-05-13T05:18:02.600Z,11.58
2019-05-13T05:21:01.459Z,11.55
2019-05-13T05:24:12.956Z,11.54
2019-05-13T05:27:27.320Z,11.43
2019-05-13T05:30:55.071Z,9.57
2019-05-13T05:34:06.786Z,9.49
2019-05-13T05:37:23.094Z,8.43
2019-05-13T05:40:12.319Z,8.51
2019-05-13T05:43:02.526Z,9.55
2019-05-13T05:45:51.623Z,9.59
2019-05-13T05:48:42.005Z,9.50
2019-05-13T05:51:31.463Z,9.73
2019-05-13T05:54:21.864Z,9.09
2019-05-13T05:57:12.111Z,9.35
2019-05-13T06:00:02.298Z,9.50
2019-05-13T06:02:53.140Z,10.42
2019-05-13T06:05:41.904Z,10.07
2019-05-13T06:08:29.181Z,10.24
2019-05-13T06:11:16.958Z,8.59
2019-05-13T06:14:04.430Z,9.64
2019-05-13T06:16:52.016Z,10.47
2019-05-13T06:19:41.857Z,9.90
2019-05-13T06:22:31.924Z,9.41
2019-05-13T06:25:22.991Z,9.73
2019-05-13T06:28:07.800Z,9.07
2019-05-13T06:30:55.387Z,9.30
2019-05-13T06:33:42.463Z,9.12
2019-05-13T06:36:31.628Z,9.40
2019-05-13T06:39:19.272Z,9.23
2019-05-13T06:42:06.903Z,9.11
2019-05-13T06:44:54.597Z,8.57
2019-05-13T06:47:42.094Z,8.78
2019-05-13T06:50:29.609Z,8.75
2019-05-13T06:53:17.020Z,8.94
2019-05-13T06:56:04.722Z,8.72
2019-05-13T06:58:52.816Z,8.46
2019-05-13T07:01:42.207Z,8.28
2019-05-13T07:04:28.760Z,8.63
2019-05-13T07:07:17.441Z,8.62
2019-05-13T07:10:05.824Z,8.52
2019-05-13T07:12:52.912Z,8.71
2019-05-13T07:15:41.670Z,8.77
2019-05-13T07:18:29.502Z,8.79
2019-05-13T07:21:16.703Z,8.94
2019-05-13T07:24:04.453Z,9.04
2019-05-13T07:26:52.438Z,9.30
2019-05-13T07:29:42.189Z,9.23
2019-05-13T07:32:31.299Z,9.16
2019-05-13T07:35:17.813Z,9.40
2019-05-13T07:38:05.437Z,9.42
2019-05-13T07:41:04.529Z,9.43
2019-05-13T07:43:52.165Z,10.02
2019-05-13T07:46:39.586Z,10.43
2019-05-13T07:49:26.925Z,10.46
2019-05-13T07:52:14.251Z,11.31
2019-05-13T07:55:01.953Z,11.47
2019-05-13T07:57:51.364Z,12.21
2019-05-13T08:00:38.529Z,12.00
2019-05-13T08:03:26.175Z,11.97
2019-05-13T08:06:13.692Z,12.33
2019-05-13T08:09:01.873Z,12.15
2019-05-13T08:12:02.293Z,13.83
2019-05-13T08:14:43.282Z,13.37
2019-05-13T08:17:28.658Z,13.69
2019-05-13T08:20:16.446Z,13.68
2019-05-13T08:23:04.119Z,12.54
2019-05-13T08:25:52.208Z,12.45
2019-05-13T08:28:53.902Z,12.19
2019-05-13T08:31:28.803Z,11.56
2019-05-13T08:34:16.091Z,11.45
2019-05-13T08:37:03.813Z,12.53
2019-05-13T08:39:52.155Z,11.78
2019-05-13T08:42:41.576Z,11.64
2019-05-13T08:45:31.507Z,11.71
2019-05-13T08:48:22.033Z,12.19
2019-05-13T08:51:11.560Z,12.39
2019-05-13T08:53:58.118Z,12.35
2019-05-13T08:56:45.774Z,13.06
2019-05-13T08:59:32.878Z,12.99
2019-05-13T09:02:22.234Z,12.49
2019-05-13T09:05:12.060Z,12.39
2019-05-13T09:08:01.319Z,12.08
2019-05-13T09:10:49.163Z,11.75
2019-05-13T09:13:36.708Z,11.47
2019-05-13T09:16:24.329Z,11.71
2019-05-13T09:19:15.833Z,11.13
2019-05-13T09:22:02.911Z,11.05
2019-05-13T09:24:52.824Z,10.92
2019-05-13T09:27:39.092Z,11.30
2019-05-13T09:30:27.423Z,11.73
2019-05-13T09:33:15.635Z,12.20
2019-05-13T09:36:03.158Z,12.46
2019-05-13T09:38:52.459Z,12.66
2019-05-13T09:41:43.681Z,13.29
2019-05-13T09:44:28.907Z,13.14
2019-05-13T09:47:16.359Z,13.16
2019-05-13T09:50:04.795Z,13.39
2019-05-13T09:52:52.309Z,13.22
2019-05-13T09:55:41.460Z,13.38
2019-05-13T09:58:32.164Z,13.89
2019-05-13T10:01:17.829Z,13.94
2019-05-13T10:04:05.322Z,13.96
2019-05-13T10:06:53.051Z,14.32
2019-05-13T10:09:42.566Z,14.65
2019-05-13T10:12:31.758Z,14.47
2019-05-13T10:15:18.248Z,14.01
2019-05-13T10:18:05.851Z,13.52
2019-05-13T10:20:58.620Z,13.42
2019-05-13T10:23:44.822Z,13.74
2019-05-13T10:26:32.292Z,13.53
2019-05-13T10:29:22.312Z,12.59
2019-05-13T10:32:09.066Z,12.78
2019-05-13T10:34:57.433Z,12.27
2019-05-13T10:37:45.677Z,12.62
2019-05-13T10:40:33.132Z,12.71
2019-05-13T10:43:30.911Z,12.88
2019-05-13T10:46:12.781Z,12.84
2019-05-13T10:49:01.741Z,12.78
2019-05-13T10:51:48.180Z,12.90
2019-05-13T10:54:35.987Z,13.10
2019-05-13T10:57:23.725Z,12.96
2019-05-13T11:00:12.438Z,12.36
2019-05-13T11:03:00.157Z,12.37
2019-05-13T11:05:52.246Z,12.41
2019-05-13T11:08:38.105Z,12.60
2019-05-13T11:11:26.005Z,12.58
2019-05-13T11:14:15.742Z,12.36
2019-05-13T11:17:07.813Z,12.04
2019-05-13T11:19:55.565Z,12.27
2019-05-13T11:22:43.217Z,12.44
2019-05-13T11:25:32.388Z,12.77
2019-05-13T11:28:20.381Z,12.76
2019-05-13T11:31:07.818Z,12.67
2019-05-13T11:33:55.294Z,12.81
2019-05-13T11:36:43.418Z,12.36
2019-05-13T11:39:32.557Z,12.72
2019-05-13T11:42:22.722Z,12.91
2019-05-13T11:45:11.784Z,12.91
2019-05-13T11:48:02.229Z,12.61
2019-05-13T11:50:51.423Z,12.64
2019-05-13T11:53:38.601Z,12.66
2019-05-13T11:56:26.099Z,12.82
2019-05-13T11:59:14.301Z,13.11
2019-05-13T12:02:04.423Z,13.19
2019-05-13T12:04:53.592Z,13.24
2019-05-13T12:07:42.075Z,13.39
2019-05-13T12:10:32.472Z,13.59
2019-05-13T12:13:18.508Z,13.43
2019-05-13T12:16:06.273Z,12.94
2019-05-13T12:18:53.779Z,13.45
2019-05-13T12:21:45.874Z,13.71
2019-05-13T12:24:30.230Z,13.07
2019-05-13T12:27:17.806Z,13.61
2019-05-13T12:30:05.511Z,13.47
2019-05-13T12:32:53.186Z,14.04
2019-05-13T12:35:42.855Z,13.84
2019-05-13T12:38:33.066Z,13.72
2019-05-13T12:41:22.768Z,13.82
2019-05-13T12:44:09.114Z,13.51
2019-05-13T12:46:56.723Z,12.81
2019-05-13T12:49:44.264Z,12.70
2019-05-13T12:52:32.691Z,12.60
2019-05-13T12:55:21.801Z,12.59
2019-05-13T12:58:12.072Z,12.53
2019-05-13T13:01:01.296Z,12.88
2019-05-13T13:03:48.064Z,12.83
2019-05-13T13:09:24.737Z,12.82
2019-05-13T13:12:12.775Z,12.86
2019-05-13T13:15:20.438Z,13.06
2019-05-13T13:17:53.636Z,13.10
2019-05-13T13:20:42.150Z,13.35
2019-05-13T13:23:28.095Z,14.02
2019-05-13T13:26:16.434Z,13.48
2019-05-13T13:29:04.206Z,13.21
2019-05-13T13:31:55.328Z,13.30
2019-05-13T13:34:43.997Z,13.23
2019-05-13T13:37:33.776Z,13.68
2019-05-13T13:40:25.970Z,13.87
2019-05-13T13:43:08.518Z,13.50
2019-05-13T13:48:45.509Z,12.99
2019-05-13T13:51:34.382Z,12.75
2019-05-13T13:54:22.665Z,12.23
2019-05-13T13:57:13.388Z,12.27
2019-05-13T14:02:53.759Z,12.93
2019-05-13T14:05:39.066Z,13.07
2019-05-13T14:06:39.634Z,12.75
2019-05-13T14:07:12.890Z,12.40
2019-05-13T14:08:26.640Z,12.95
2019-05-13T14:11:14.162Z,13.21
2019-05-13T14:14:02.279Z,12.78
2019-05-13T14:16:51.873Z,12.81
2019-05-13T14:19:38.765Z,12.44
2019-05-13T14:22:26.069Z,12.42
2019-05-13T14:25:13.485Z,12.42
2019-05-13T14:28:01.099Z,12.11
2019-05-13T14:30:51.255Z,11.87
2019-05-13T14:33:37.883Z,12.21
2019-05-13T14:36:25.469Z,12.28
2019-05-13T14:39:12.841Z,12.31
2019-05-13T14:42:02.150Z,12.35
2019-05-13T14:44:51.881Z,12.18
2019-05-13T14:47:38.746Z,12.45
2019-05-13T14:50:25.825Z,12.75
2019-05-13T14:53:13.275Z,12.72
2019-05-13T14:56:03.035Z,12.39
2019-05-13T14:58:52.027Z,12.17
2019-05-13T15:01:41.333Z,12.24
2019-05-13T15:04:28.254Z,12.35
2019-05-13T15:07:15.974Z,12.29
2019-05-13T15:10:03.993Z,12.42
2019-05-13T15:12:52.550Z,12.62
2019-05-13T15:15:42.182Z,12.89
2019-05-13T15:18:32.268Z,12.88
2019-05-13T15:21:21.239Z,12.62
2019-05-13T15:24:08.173Z,12.51
2019-05-13T15:26:55.718Z,12.50
2019-05-13T15:29:43.415Z,12.48
2019-05-13T15:32:32.602Z,12.52
2019-05-13T15:35:19.854Z,12.46
2019-05-13T15:38:07.993Z,12.52
2019-05-13T15:40:55.744Z,12.70
2019-05-13T15:43:43.221Z,12.58
2019-05-13T15:46:32.312Z,12.56
2019-05-13T15:49:22.086Z,12.62
2019-05-13T15:52:11.751Z,12.68
2019-05-13T15:54:58.510Z,12.63
2019-05-13T15:57:46.351Z,12.77
2019-05-13T16:00:34.034Z,12.54
2019-05-13T16:03:21.565Z,12.56
2019-05-13T16:06:09.084Z,12.69
2019-05-13T16:08:56.872Z,12.65
2019-05-13T16:11:44.930Z,12.58
2019-05-13T16:14:32.174Z,12.20
2019-05-13T16:17:30.639Z,12.17
2019-05-13T16:20:08.972Z,12.03
2019-05-13T16:22:57.966Z,12.06
2019-05-13T16:25:47.613Z,12.01
2019-05-13T16:28:35.217Z,12.14
2019-05-13T16:31:22.646Z,12.20
2019-05-13T16:34:11.148Z,12.10
2019-05-13T16:37:01.643Z,12.16
2019-05-13T16:39:48.549Z,12.16
2019-05-13T16:42:35.933Z,12.27
2019-05-13T16:45:23.748Z,12.34
2019-05-13T16:48:12.329Z,12.34
2019-05-13T16:51:00.535Z,12.22
2019-05-13T16:53:52.316Z,12.18
2019-05-13T16:56:42.030Z,12.31
2019-05-13T16:59:29.042Z,12.22
2019-05-13T17:02:17.262Z,12.16
2019-05-13T17:05:05.318Z,12.20
2019-05-13T17:07:52.617Z,12.26
2019-05-13T17:10:41.882Z,12.17
2019-05-13T17:13:28.663Z,12.12
2019-05-13T17:16:15.783Z,12.14
2019-05-13T17:19:03.154Z,12.05
2019-05-13T17:21:52.013Z,12.04
2019-05-13T17:24:42.477Z,12.00
2019-05-13T17:27:28.885Z,12.00
2019-05-13T17:30:16.977Z,12.01
2019-05-13T17:33:04.492Z,11.96
2019-05-13T17:35:52.024Z,12.00
2019-05-13T17:38:39.365Z,11.94
2019-05-13T17:41:26.899Z,11.88
2019-05-13T17:44:14.331Z,11.88
2019-05-13T17:47:02.169Z,11.87
2019-05-13T17:49:52.167Z,11.81
2019-05-13T17:52:39.106Z,11.76
2019-05-13T17:55:26.839Z,11.74
2019-05-13T17:58:14.717Z,11.66
2019-05-13T18:01:02.422Z,11.71
2019-05-13T18:03:51.749Z,11.74
2019-05-13T18:06:41.713Z,11.59
2019-05-13T18:09:31.541Z,11.65
2019-05-13T18:12:18.364Z,11.65
2019-05-13T18:15:06.722Z,11.61
2019-05-13T18:17:53.817Z,11.68
2019-05-13T18:20:41.654Z,11.75
2019-05-13T18:23:28.960Z,11.74
2019-05-13T18:26:17.045Z,11.65
2019-05-13T18:29:04.740Z,11.52
2019-05-13T18:31:53.340Z,11.42
2019-05-13T18:34:41.675Z,11.34
2019-05-13T18:37:31.383Z,11.25
2019-05-13T18:40:18.913Z,11.16
2019-05-13T18:43:06.307Z,11.01
2019-05-13T18:45:54.789Z,11.07
2019-05-13T18:48:57.408Z,10.83
2019-05-13T18:51:31.673Z,10.82
2019-05-13T18:54:18.924Z,10.65
2019-05-13T18:57:06.582Z,10.59
2019-05-13T18:59:53.956Z,10.60
2019-05-13T19:02:41.632Z,10.50
2019-05-13T19:05:31.574Z,10.47
2019-05-13T19:08:18.455Z,10.31
2019-05-13T19:11:08.494Z,10.13
2019-05-13T19:14:02.717Z,10.16
2019-05-13T19:16:50.129Z,10.02
2019-05-13T19:19:37.742Z,10.08
2019-05-13T19:22:25.345Z,10.00
2019-05-13T19:25:13.241Z,9.95
2019-05-13T19:28:02.361Z,9.76
2019-05-13T19:30:51.556Z,9.69
2019-05-13T19:33:41.622Z,9.59
2019-05-13T19:36:30.640Z,9.74
2019-05-13T19:39:18.368Z,9.58
2019-05-13T19:42:06.241Z,9.65
2019-05-13T19:44:53.580Z,9.40
2019-05-13T19:47:43.896Z,9.43
2019-05-13T19:50:32.385Z,9.27
2019-05-13T19:53:21.842Z,9.13
2019-05-13T19:56:11.776Z,9.20
2019-05-13T19:59:01.366Z,9.14
2019-05-13T20:01:48.136Z,9.11
2019-05-13T20:04:35.606Z,8.92
2019-05-13T20:07:22.722Z,8.88
2019-05-13T20:10:11.870Z,8.97
2019-05-13T20:13:01.690Z,8.81
2019-05-13T20:15:48.801Z,8.88
2019-05-13T20:18:36.468Z,8.68
2019-05-13T20:21:23.561Z,8.75
2019-05-13T20:24:11.896Z,8.65
2019-05-13T20:27:01.355Z,8.56
2019-05-13T20:29:48.513Z,8.50
2019-05-13T20:32:36.057Z,8.47
2019-05-13T20:35:23.250Z,8.48
2019-05-13T20:38:11.643Z,8.58
2019-05-13T20:41:01.103Z,8.55
2019-05-13T20:43:48.102Z,8.23
2019-05-13T20:46:38.757Z,8.31
2019-05-13T20:49:27.747Z,8.17
2019-05-13T20:52:15.653Z,8.11
2019-05-13T20:55:03.568Z,8.14
2019-05-13T20:57:53.104Z,8.30
2019-05-13T21:00:42.376Z,8.22
2019-05-13T21:03:41.834Z,7.92
2019-05-13T21:06:32.063Z,7.91
2019-05-13T21:09:19.608Z,7.92
2019-05-13T21:12:11.880Z,7.96
2019-05-13T21:15:05.334Z,7.80
2019-05-13T21:17:54.668Z,7.88
2019-05-13T21:20:44.324Z,7.86
2019-05-13T21:23:36.050Z,7.67
2019-05-13T21:26:23.636Z,7.69
2019-05-13T21:29:12.034Z,7.76
2019-05-13T21:32:03.729Z,7.62
2019-05-13T21:34:51.724Z,7.79
2019-05-13T21:37:40.676Z,7.68
2019-05-13T21:40:31.974Z,7.59
2019-05-13T21:43:18.912Z,7.61
2019-05-13T21:46:08.823Z,7.57
2019-05-13T21:48:58.230Z,7.53
2019-05-13T21:51:52.876Z,7.36
2019-05-13T21:54:42.210Z,7.43
2019-05-13T21:57:33.046Z,7.72
2019-05-13T22:00:25.097Z,7.49
2019-05-13T22:03:14.788Z,7.31
2019-05-13T22:06:18.536Z,7.42
2019-05-13T22:09:11.512Z,7.16
2019-05-13T22:11:58.532Z,7.08
2019-05-13T22:14:46.164Z,7.11
2019-05-13T22:17:33.197Z,7.24
2019-05-13T22:20:21.330Z,7.45
2019-05-13T22:23:11.788Z,7.28
2019-05-13T22:25:58.548Z,7.17
2019-05-13T22:28:45.972Z,7.16
2019-05-13T22:31:33.331Z,7.18
2019-05-13T22:34:21.163Z,7.26
2019-05-13T22:37:11.486Z,7.27
2019-05-13T22:39:57.879Z,7.22
2019-05-13T22:42:45.404Z,7.27
2019-05-13T22:45:33.101Z,7.25
2019-05-13T22:48:22.316Z,7.30
2019-05-13T22:51:11.808Z,7.37
2019-05-13T22:53:59.343Z,7.17
2019-05-13T22:56:46.807Z,7.12
2019-05-13T22:59:33.872Z,7.18
2019-05-13T23:02:22.113Z,7.18
2019-05-13T23:05:11.277Z,7.11
2019-05-13T23:07:58.840Z,7.25
2019-05-13T23:10:46.206Z,7.47
2019-05-13T23:13:33.546Z,7.38
2019-05-13T23:16:22.206Z,7.33
2019-05-13T23:19:11.142Z,7.22
2019-05-13T23:22:01.609Z,7.37
2019-05-13T23:24:48.623Z,7.29
2019-05-13T23:27:36.187Z,7.29
2019-05-13T23:30:23.939Z,7.31
2019-05-13T23:33:11.739Z,7.18
2019-05-13T23:36:01.356Z,7.21
2019-05-13T23:38:48.965Z,7.20
2019-05-13T23:41:36.576Z,7.05
2019-05-13T23:44:27.994Z,7.08
2019-05-13T23:47:13.472Z,7.08
2019-05-13T23:50:02.012Z,7.09
2019-05-13T23:52:51.191Z,7.07
2019-05-13T23:55:38.592Z,7.08
2019-05-13T23:58:26.188Z,7.12
